Time;durP1;ratioP1;P1;durP2;ratioP2;P2;SDS_P1;SDS_P2;PMS_P1;PMS_P2;Temp;Humidity;BMP_temperature;BMP_pressure;BME280_temperature;BME280_humidity;BME280_pressure;Samples;Min_cycle;Max_cycle;Signal;HPM_P1;HPM_P2
2022/04/26 03:36:06;;;;;;;7.40;5.80;;;9.50;99.90;;;;;;4945131;29;20176;-83
2022/04/26 03:37:05;;;;;;;7.63;6.60;;;7.30;99.90;;;;;;4944755;29;20606;-82
2022/04/26 03:39:35;;;;;;;6.67;5.90;;;7.30;99.90;;;;;;4943504;29;20231;-82
2022/04/26 03:42:02;;;;;;;6.50;5.83;;;7.30;99.90;;;;;;4944225;29;20198;-82
2022/04/26 03:44:29;;;;;;;7.40;6.53;;;7.30;99.90;;;;;;4943053;29;20187;-82
2022/04/26 03:46:54;;;;;;;6.43;5.80;;;7.30;99.90;;;;;;4943871;29;20201;-82
2022/04/26 03:49:22;;;;;;;6.83;5.63;;;7.30;99.90;;;;;;4942123;29;20671;-83
2022/04/26 03:51:47;;;;;;;6.63;5.90;;;7.30;99.90;;;;;;4943240;29;20198;-82
2022/04/26 03:54:13;;;;;;;8.33;5.93;;;7.30;99.90;;;;;;4942890;29;20253;-82
2022/04/26 03:56:39;;;;;;;5.70;4.90;;;7.40;99.90;;;;;;4943800;29;20185;-82
2022/04/26 03:59:04;;;;;;;6.53;5.83;;;7.40;99.90;;;;;;4942796;29;20197;-82
2022/04/26 04:01:30;;;;;;;6.70;5.50;;;7.40;99.90;;;;;;4942166;29;20645;-82
2022/04/26 04:03:56;;;;;;;4.97;4.47;;;7.40;99.90;;;;;;4944060;29;20189;-82
2022/04/26 04:06:21;;;;;;;5.80;5.03;;;7.40;99.90;;;;;;4942151;29;20274;-82
2022/04/26 04:08:47;;;;;;;6.97;5.00;;;7.40;99.90;;;;;;4943319;29;20182;-82
2022/04/26 04:11:12;;;;;;;6.23;5.20;;;7.40;99.90;;;;;;4943165;29;20230;-82
2022/04/26 04:13:38;;;;;;;6.73;5.93;;;7.40;99.90;;;;;;4944450;29;20652;-82
2022/04/26 04:16:04;;;;;;;7.17;5.70;;;7.40;99.90;;;;;;4944635;29;20256;-82
2022/04/26 04:21:14;;;;;;;4.93;4.40;;;7.50;99.90;;;;;;4946348;29;20751;-83
2022/04/26 04:23:40;;;;;;;6.30;5.33;;;7.40;99.90;;;;;;4955442;29;20190;-82
2022/04/26 04:26:06;;;;;;;5.93;5.33;;;7.40;99.90;;;;;;4959964;29;20181;-81
2022/04/26 04:28:35;;;;;;;6.23;5.40;;;7.50;99.90;;;;;;4954656;29;20205;-82
2022/04/26 04:31:01;;;;;;;6.30;5.53;;;7.50;99.90;;;;;;4941515;29;20208;-82
2022/04/26 04:33:27;;;;;;;6.27;5.40;;;7.50;99.90;;;;;;4943331;29;20173;-82
2022/04/26 04:35:53;;;;;;;6.27;5.07;;;7.60;99.90;;;;;;4942826;29;20180;-82
2022/04/26 04:38:18;;;;;;;5.97;4.70;;;7.60;99.90;;;;;;4941827;29;20185;-82
2022/04/26 04:40:44;;;;;;;6.50;5.80;;;7.60;99.90;;;;;;4943884;29;20570;-82
2022/04/26 04:43:13;;;;;;;7.20;6.03;;;7.60;99.90;;;;;;4942886;29;20664;-82
2022/04/26 04:45:40;;;;;;;6.40;5.80;;;7.60;99.90;;;;;;4942072;29;20268;-82
2022/04/26 04:48:06;;;;;;;6.37;5.70;;;7.60;99.90;;;;;;4942841;29;20204;-82
2022/04/26 04:50:35;;;;;;;6.67;5.97;;;7.60;99.90;;;;;;4942331;29;20233;-83
2022/04/26 04:53:01;;;;;;;7.73;6.60;;;7.60;99.90;;;;;;4941212;29;20185;-82
2022/04/26 04:55:27;;;;;;;7.47;6.67;;;7.60;99.90;;;;;;4941107;29;20539;-81
2022/04/26 04:57:53;;;;;;;10.33;7.57;;;7.60;99.90;;;;;;4941619;29;20178;-82
2022/04/26 05:00:18;;;;;;;8.37;6.23;;;7.70;99.90;;;;;;4942486;29;20249;-83
2022/04/26 05:02:44;;;;;;;6.20;5.57;;;7.70;99.90;;;;;;4943038;29;20267;-83
2022/04/26 05:05:10;;;;;;;4.90;4.23;;;7.70;99.90;;;;;;4943121;29;20186;-82
2022/04/26 05:07:36;;;;;;;4.30;3.90;;;7.60;99.90;;;;;;4942522;29;20214;-82
2022/04/26 05:10:04;;;;;;;4.67;3.77;;;7.70;99.90;;;;;;4941821;29;20173;-83
2022/04/26 05:12:29;;;;;;;4.03;3.43;;;7.70;99.90;;;;;;4942244;29;20271;-82
2022/04/26 05:14:55;;;;;;;4.10;3.70;;;7.70;99.90;;;;;;4942809;29;20178;-82
2022/04/26 05:17:20;;;;;;;3.73;3.40;;;7.90;99.90;;;;;;4941419;29;20666;-83
2022/04/26 05:19:46;;;;;;;3.67;3.27;;;7.90;99.90;;;;;;4942479;29;20209;-82
2022/04/26 05:22:12;;;;;;;4.53;3.67;;;8.00;99.90;;;;;;4941531;29;20229;-82
2022/04/26 05:24:54;;;;;;;4.47;3.73;;;8.00;99.90;;;;;;4941606;29;20209;-84
2022/04/26 05:27:27;;;;;;;3.60;2.73;;;8.00;99.90;;;;;;4941749;29;20201;-83
2022/04/26 05:29:54;;;;;;;4.57;3.73;;;8.00;99.90;;;;;;4942051;29;20168;-83
2022/04/26 05:32:24;;;;;;;5.13;4.20;;;8.00;99.90;;;;;;4941796;29;20290;-83
2022/04/26 05:35:03;;;;;;;4.07;3.67;;;8.10;99.90;;;;;;4942841;29;20163;-83
2022/04/26 05:37:31;;;;;;;4.33;3.93;;;8.10;99.90;;;;;;4940644;29;20179;-83
2022/04/26 05:39:57;;;;;;;3.60;3.30;;;8.20;99.90;;;;;;4941733;29;20178;-83
2022/04/26 05:42:23;;;;;;;4.13;3.73;;;8.20;99.90;;;;;;4942405;29;20270;-83
2022/04/26 05:44:49;;;;;;;4.30;3.90;;;8.20;99.90;;;;;;4942803;29;20206;-83
2022/04/26 05:47:15;;;;;;;10.70;3.57;;;8.30;99.90;;;;;;4942515;29;20226;-82
2022/04/26 05:49:40;;;;;;;4.60;3.90;;;8.30;99.90;;;;;;4941343;29;20197;-83
2022/04/26 05:52:06;;;;;;;3.33;3.00;;;8.40;99.90;;;;;;4941049;29;20235;-83
2022/04/26 05:54:32;;;;;;;3.73;3.37;;;8.50;99.90;;;;;;4941860;29;20174;-82
2022/04/26 05:56:58;;;;;;;2.93;2.70;;;8.50;99.90;;;;;;4943190;29;20186;-83
2022/04/26 05:59:24;;;;;;;3.40;3.10;;;8.60;99.90;;;;;;4939585;29;20551;-83
2022/04/26 06:01:51;;;;;;;3.17;2.30;;;8.60;99.90;;;;;;4939408;29;20221;-83
2022/04/26 06:04:17;;;;;;;3.23;2.90;;;8.60;99.90;;;;;;4940146;29;20277;-83
2022/04/26 06:06:42;;;;;;;2.87;2.30;;;8.60;99.90;;;;;;4939227;29;20625;-83
2022/04/26 06:09:08;;;;;;;2.60;2.40;;;8.60;99.90;;;;;;4939922;29;20552;-83
2022/04/26 06:11:34;;;;;;;2.87;2.37;;;8.60;99.90;;;;;;4940251;29;20228;-83
2022/04/26 06:14:04;;;;;;;3.27;2.40;;;8.60;99.90;;;;;;4939640;29;20268;-83
2022/04/26 06:16:29;;;;;;;2.63;2.20;;;8.60;99.90;;;;;;4939175;29;20268;-83
2022/04/26 06:18:55;;;;;;;2.30;2.10;;;8.50;99.90;;;;;;4938391;29;20702;-84
2022/04/26 06:21:21;;;;;;;3.03;2.70;;;8.50;99.90;;;;;;4938244;29;20205;-84
2022/04/26 06:23:46;;;;;;;3.07;2.30;;;8.50;99.90;;;;;;4942461;29;20178;-84
2022/04/26 06:26:12;;;;;;;2.70;2.30;;;8.60;99.90;;;;;;4947042;29;20170;-83
2022/04/26 06:28:38;;;;;;;2.77;2.20;;;8.60;99.90;;;;;;4958324;29;20229;-83
2022/04/26 06:31:04;;;;;;;2.03;1.90;;;8.60;99.90;;;;;;4958239;29;20269;-83
2022/04/26 06:33:29;;;;;;;2.00;1.80;;;8.60;99.90;;;;;;4951075;29;20177;-84
2022/04/26 06:35:55;;;;;;;2.37;2.17;;;8.60;99.90;;;;;;4940475;29;20196;-83
2022/04/26 06:38:23;;;;;;;1.70;1.33;;;8.70;99.90;;;;;;4940610;29;20547;-83
2022/04/26 06:40:49;;;;;;;9.63;6.10;;;8.80;99.90;;;;;;4938652;29;20269;-84
2022/04/26 06:43:15;;;;;;;3.40;2.80;;;8.90;99.90;;;;;;4939092;29;20186;-84
2022/04/26 06:45:41;;;;;;;2.03;1.87;;;9.00;99.90;;;;;;4939652;29;20525;-84
2022/04/26 06:48:10;;;;;;;17.87;13.40;;;9.10;99.90;;;;;;4939713;29;20272;-84
2022/04/26 06:50:36;;;;;;;24.17;14.33;;;9.20;99.90;;;;;;4939293;29;20182;-84
2022/04/26 06:53:02;;;;;;;3.33;2.50;;;9.20;99.90;;;;;;4941326;29;20585;-84
2022/04/26 06:55:27;;;;;;;1.83;1.43;;;9.40;99.90;;;;;;4940035;29;20176;-84
2022/04/26 06:57:53;;;;;;;2.03;1.80;;;9.40;99.90;;;;;;4939852;29;20217;-83
2022/04/26 07:00:19;;;;;;;3.67;3.30;;;9.40;99.90;;;;;;4941421;29;20665;-85
2022/04/26 07:02:45;;;;;;;2.43;2.17;;;9.30;99.90;;;;;;4943647;29;20290;-84
2022/04/26 07:05:11;;;;;;;2.00;1.80;;;9.40;99.90;;;;;;4943342;29;20276;-84
2022/04/26 07:07:38;;;;;;;1.47;1.37;;;9.50;99.90;;;;;;4944650;29;20203;-83
2022/04/26 07:10:05;;;;;;;2.53;2.13;;;9.60;99.90;;;;;;4943456;29;20182;-84
2022/04/26 07:12:31;;;;;;;4.70;3.03;;;9.60;99.90;;;;;;4945138;29;20189;-84
2022/04/26 07:14:57;;;;;;;1.60;1.50;;;9.60;99.90;;;;;;4947848;29;20213;-84
2022/04/26 07:17:24;;;;;;;1.70;1.60;;;9.60;99.90;;;;;;4942708;29;20667;-84
2022/04/26 07:19:49;;;;;;;4.00;2.77;;;9.60;99.90;;;;;;4945005;29;20241;-84
2022/04/26 07:22:15;;;;;;;12.00;6.20;;;9.70;99.90;;;;;;4942930;29;20201;-84
2022/04/26 07:24:41;;;;;;;3.67;2.40;;;9.90;99.90;;;;;;4945098;29;20181;-84
2022/04/26 07:27:07;;;;;;;1.33;1.23;;;10.10;99.90;;;;;;4943548;29;20642;-84
2022/04/26 07:29:33;;;;;;;7.80;3.60;;;10.30;99.90;;;;;;4944966;29;20169;-84
2022/04/26 07:31:59;;;;;;;4.47;2.60;;;10.30;99.90;;;;;;4943729;29;20205;-84
2022/04/26 07:34:25;;;;;;;33.03;11.30;;;10.20;99.90;;;;;;4945238;29;20184;-85
2022/04/26 07:36:53;;;;;;;24.23;10.10;;;10.10;99.90;;;;;;4943570;29;20187;-85
2022/04/26 07:39:19;;;;;;;9.67;4.30;;;10.30;99.90;;;;;;4943483;29;20612;-85
2022/04/26 07:41:46;;;;;;;25.40;11.20;;;10.30;99.90;;;;;;4943196;29;20205;-85
2022/04/26 07:44:12;;;;;;;34.40;12.97;;;10.30;99.90;;;;;;4943722;29;20192;-85
2022/04/26 07:46:38;;;;;;;11.97;4.67;;;10.30;99.90;;;;;;4944056;29;20220;-84
2022/04/26 07:49:07;;;;;;;10.80;5.93;;;10.20;99.90;;;;;;4943564;29;20181;-84
2022/04/26 07:51:33;;;;;;;16.73;8.00;;;10.00;99.90;;;;;;4944784;29;20687;-85
2022/04/26 07:53:59;;;;;;;18.30;7.97;;;10.00;99.90;;;;;;4943829;29;20190;-84
2022/04/26 07:56:27;;;;;;;41.10;17.70;;;9.90;99.90;;;;;;4945214;29;20196;-85
2022/04/26 07:58:53;;;;;;;38.57;14.33;;;9.80;99.90;;;;;;4945286;29;20181;-84
2022/04/26 08:01:19;;;;;;;32.60;14.73;;;9.80;99.90;;;;;;4943974;29;20702;-85
2022/04/26 08:03:45;;;;;;;65.10;39.60;;;9.70;99.90;;;;;;4945076;29;20202;-85
2022/04/26 08:06:10;;;;;;;10.80;7.97;;;9.70;99.90;;;;;;4944914;29;20184;-85
2022/04/26 08:08:36;;;;;;;5.03;4.00;;;9.60;99.90;;;;;;4950980;29;20212;-85
2022/04/26 08:11:03;;;;;;;2.40;2.20;;;9.60;99.90;;;;;;4944722;29;20197;-85
2022/04/26 08:13:29;;;;;;;11.57;10.37;;;9.60;99.90;;;;;;4945126;29;20190;-85
2022/04/26 08:15:54;;;;;;;13.20;11.53;;;9.50;99.90;;;;;;4959095;29;20229;-85
2022/04/26 08:18:20;;;;;;;4.33;3.27;;;9.50;99.90;;;;;;4953858;29;20194;-85
2022/04/26 08:20:46;;;;;;;19.93;16.33;;;9.50;99.90;;;;;;4945135;29;20286;-85
2022/04/26 08:23:12;;;;;;;8.10;6.90;;;9.50;99.90;;;;;;4944738;29;20185;-85
2022/04/26 08:28:22;;;;;;;12.27;4.03;;;9.60;99.90;;;;;;4946081;29;20207;-85
2022/04/26 08:30:48;;;;;;;37.60;16.27;;;9.70;99.90;;;;;;4948569;29;20590;-84
2022/04/26 08:33:14;;;;;;;28.03;10.70;;;9.60;99.90;;;;;;4961850;29;20169;-86
2022/04/26 08:35:39;;;;;;;5.87;3.00;;;9.60;99.90;;;;;;4963306;29;20169;-84
2022/04/26 08:38:05;;;;;;;7.27;4.03;;;9.50;99.90;;;;;;4962887;29;20179;-84
2022/04/26 08:40:31;;;;;;;3.10;2.20;;;9.30;99.90;;;;;;4941903;29;20181;-84
2022/04/26 08:42:59;;;;;;;12.80;7.00;;;9.30;99.90;;;;;;4940650;29;20192;-84
2022/04/26 08:45:25;;;;;;;18.00;4.83;;;9.20;99.90;;;;;;4940770;29;20181;-84
2022/04/26 08:53:21;;;;;;;4.63;3.20;;;8.70;99.90;;;;;;4941645;29;20173;-82
2022/04/26 08:55:49;;;;;;;4.13;3.43;;;8.60;99.90;;;;;;4940863;29;20205;-84
2022/04/26 08:58:18;;;;;;;10.03;5.03;;;8.50;99.90;;;;;;4940913;29;20196;-82
2022/04/26 09:01:05;;;;;;;6.27;3.90;;;8.50;99.90;;;;;;4940299;29;20284;-82
2022/04/26 09:03:59;;;;;;;24.23;11.17;;;8.50;99.90;;;;;;4940825;29;20576;-82
2022/04/26 09:06:36;;;;;;;4.67;4.03;;;8.50;99.90;;;;;;4940409;29;20569;-82
2022/04/26 09:09:15;;;;;;;3.23;2.93;;;8.60;99.90;;;;;;4940343;29;20210;-83
2022/04/26 09:11:42;;;;;;;5.33;3.83;;;8.60;99.90;;;;;;4938883;29;20273;-83
2022/04/26 09:14:27;;;;;;;4.87;4.27;;;8.60;99.90;;;;;;4940253;29;20179;-83
2022/04/26 09:17:08;;;;;;;4.03;3.33;;;8.70;99.90;;;;;;4938558;29;20179;-82
2022/04/26 09:19:55;;;;;;;4.03;3.63;;;8.70;99.90;;;;;;4939425;29;20449;-84
2022/04/26 09:22:26;;;;;;;4.37;3.70;;;8.70;99.90;;;;;;4937671;29;20201;-84
2022/04/26 09:24:57;;;;;;;4.50;4.00;;;8.30;99.90;;;;;;4937669;29;20171;-84
2022/04/26 09:27:23;;;;;;;5.70;4.90;;;8.10;99.90;;;;;;4940840;29;20732;-83
2022/04/26 09:29:49;;;;;;;5.37;4.40;;;7.70;99.90;;;;;;4941027;29;20671;-83
2022/04/26 09:32:15;;;;;;;5.67;4.73;;;7.60;99.90;;;;;;4940025;29;20202;-83
2022/04/26 09:34:41;;;;;;;4.60;3.43;;;;;;;;;;4941423;29;20639;-83
2022/04/26 09:37:06;;;;;;;3.63;3.20;;;7.60;99.90;;;;;;4941853;29;20185;-84
2022/04/26 09:39:32;;;;;;;3.30;2.40;;;7.40;99.90;;;;;;4940246;29;20178;-83
2022/04/26 09:41:58;;;;;;;2.87;2.10;;;7.40;99.90;;;;;;4941004;29;20328;-83
2022/04/26 09:44:32;;;;;;;2.93;2.40;;;7.20;99.90;;;;;;4942140;29;20188;-82
2022/04/26 09:46:58;;;;;;;2.10;1.90;;;7.00;99.90;;;;;;4941283;29;20201;-82
2022/04/26 09:49:26;;;;;;;2.57;2.03;;;6.80;99.90;;;;;;4939517;29;20185;-81
2022/04/26 09:51:59;;;;;;;2.07;1.70;;;6.70;99.90;;;;;;4941079;29;20564;-81
2022/04/26 09:54:25;;;;;;;4.87;2.10;;;6.70;99.90;;;;;;4939815;29;20654;-82
2022/04/26 09:56:52;;;;;;;3.20;2.10;;;6.60;99.90;;;;;;4939850;29;20232;-82
2022/04/26 09:59:27;;;;;;;1.90;1.60;;;6.60;99.90;;;;;;4939399;29;20783;-83
2022/04/26 10:01:55;;;;;;;2.27;2.07;;;6.60;99.90;;;;;;4939034;29;20465;-82
2022/04/26 10:04:23;;;;;;;1.70;1.60;;;6.50;99.90;;;;;;4940989;29;20173;-82
2022/04/26 10:06:57;;;;;;;3.07;2.30;;;6.60;99.90;;;;;;4939469;29;20651;-82
2022/04/26 10:09:24;;;;;;;2.37;1.30;;;6.50;99.90;;;;;;4939506;29;20165;-82
2022/04/26 10:11:54;;;;;;;4.50;2.43;;;6.40;99.90;;;;;;4940655;29;20461;-81
2022/04/26 10:14:21;;;;;;;3.23;2.60;;;6.40;99.90;;;;;;4942005;29;20206;-82
2022/04/26 10:16:47;;;;;;;1.80;1.70;;;6.50;99.90;;;;;;4940522;29;20181;-82
2022/04/26 10:19:13;;;;;;;2.70;1.90;;;6.40;99.90;;;;;;4940341;29;20516;-84
2022/04/26 10:21:38;;;;;;;2.80;2.20;;;6.30;99.90;;;;;;4939953;29;20480;-81
2022/04/26 10:24:10;;;;;;;2.50;2.30;;;6.30;99.90;;;;;;4939919;29;20644;-81
2022/04/26 10:26:36;;;;;;;2.67;2.47;;;6.30;99.90;;;;;;4939903;29;20215;-80
2022/04/26 10:29:08;;;;;;;2.50;2.00;;;6.30;99.90;;;;;;4941550;29;20421;-82
2022/04/26 10:31:35;;;;;;;2.57;1.93;;;6.30;99.90;;;;;;4941634;29;20233;-81
2022/04/26 10:34:03;;;;;;;2.33;2.00;;;6.30;99.90;;;;;;4953405;29;20903;-81
2022/04/26 10:36:33;;;;;;;4.03;1.70;;;6.40;99.90;;;;;;4955499;29;20430;-81
2022/04/26 10:39:08;;;;;;;3.10;2.10;;;6.40;99.90;;;;;;4956948;29;20406;-81
2022/04/26 10:41:37;;;;;;;2.27;1.80;;;6.30;99.90;;;;;;4939551;29;20831;-81
2022/04/26 10:44:21;;;;;;;4.77;2.60;;;6.40;99.90;;;;;;4939945;29;20418;-81
2022/04/26 10:47:08;;;;;;;3.47;2.63;;;6.40;99.90;;;;;;4938445;29;20409;-81
2022/04/26 10:49:39;;;;;;;4.53;2.70;;;6.50;99.90;;;;;;4939186;29;20672;-81
2022/04/26 10:54:45;;;;;;;3.37;2.70;;;6.40;99.90;;;;;;4939766;29;20254;-81
2022/04/26 10:57:22;;;;;;;3.70;2.40;;;6.30;99.90;;;;;;4940327;29;20426;-82
2022/04/26 11:00:18;;;;;;;4.80;3.43;;;6.10;99.90;;;;;;4938585;29;20181;-81
2022/04/26 11:02:48;;;;;;;4.87;2.60;;;6.30;99.90;;;;;;4938404;29;20205;-81
2022/04/26 11:05:25;;;;;;;6.53;3.17;;;6.20;99.90;;;;;;4938728;29;20176;-81
2022/04/26 11:07:52;;;;;;;3.37;2.70;;;6.20;99.90;;;;;;4939906;29;20198;-81
2022/04/26 11:10:26;;;;;;;4.83;2.30;;;6.10;99.90;;;;;;4939172;29;20213;-82
2022/04/26 11:12:52;;;;;;;1.97;1.83;;;6.00;99.90;;;;;;4940832;29;20430;-81
2022/04/26 11:15:20;;;;;;;2.57;2.37;;;5.80;99.90;;;;;;4938954;29;20245;-81
2022/04/26 11:17:47;;;;;;;3.27;2.70;;;5.70;99.90;;;;;;4938065;29;20194;-81
2022/04/26 11:20:21;;;;;;;3.40;2.67;;;5.70;99.90;;;;;;4937403;29;20425;-81
2022/04/26 11:22:52;;;;;;;3.63;3.33;;;5.60;99.90;;;;;;4938064;29;20433;-82
2022/04/26 11:28:11;;;;;;;2.27;1.80;;;5.30;99.90;;;;;;4939433;29;20456;-82
2022/04/26 11:30:40;;;;;;;2.03;1.70;;;5.10;99.90;;;;;;4939671;29;20409;-82
2022/04/26 11:33:10;;;;;;;2.23;2.03;;;5.00;99.90;;;;;;4938361;29;20410;-82
2022/04/26 11:35:36;;;;;;;3.13;2.83;;;5.10;99.90;;;;;;4939239;29;20177;-81
2022/04/26 11:38:08;;;;;;;2.10;1.70;;;5.10;99.90;;;;;;4939733;29;20424;-81
2022/04/26 11:40:38;;;;;;;2.70;2.07;;;5.10;99.90;;;;;;4938334;29;20418;-82
2022/04/26 11:43:10;;;;;;;2.50;2.03;;;5.10;99.90;;;;;;4939642;29;20429;-82
2022/04/26 11:45:36;;;;;;;1.73;1.63;;;5.00;99.90;;;;;;4941742;29;20425;-82
2022/04/26 11:48:03;;;;;;;3.30;2.10;;;5.00;99.90;;;;;;4942265;29;20465;-82
2022/04/26 11:50:30;;;;;;;2.03;1.73;;;4.90;99.90;;;;;;4941759;29;20433;-83
2022/04/26 11:53:06;;;;;;;2.17;1.63;;;4.80;99.90;;;;;;4942533;29;20460;-83
2022/04/26 11:55:37;;;;;;;2.13;1.90;;;4.90;99.90;;;;;;4941488;29;20448;-82
2022/04/26 11:58:19;;;;;;;2.73;1.67;;;4.90;99.90;;;;;;4942596;29;20409;-82
2022/04/26 12:00:59;;;;;;;3.17;2.77;;;4.70;99.90;;;;;;4941657;29;20445;-83
2022/04/26 12:03:32;;;;;;;2.97;2.07;;;4.60;99.90;;;;;;4941156;29;20521;-83
2022/04/26 12:06:07;;;;;;;4.83;2.77;;;4.50;99.90;;;;;;4941115;29;20770;-83
2022/04/26 12:08:40;;;;;;;2.87;2.23;;;4.40;99.90;;;;;;4942485;29;20449;-83
2022/04/26 12:11:23;;;;;;;2.83;1.97;;;4.40;99.90;;;;;;4940421;29;20449;-83
2022/04/26 12:14:00;;;;;;;2.00;1.70;;;4.50;99.90;;;;;;4939710;29;20424;-83
2022/04/26 12:16:26;;;;;;;1.50;1.40;;;4.60;99.90;;;;;;4939299;29;20513;-84
2022/04/26 12:18:56;;;;;;;1.60;1.50;;;4.90;99.90;;;;;;4939819;29;20485;-85
2022/04/26 12:21:26;;;;;;;3.73;1.43;;;5.10;99.90;;;;;;4941499;29;20449;-85
2022/04/26 12:24:21;;;;;;;1.27;1.17;;;5.40;99.90;;;;;;4942540;29;20422;-83
2022/04/26 12:26:58;;;;;;;1.30;1.20;;;5.90;99.90;;;;;;4942917;29;20421;-84
2022/04/26 12:29:29;;;;;;;1.40;1.30;;;6.20;99.90;;;;;;4941663;29;20417;-85
2022/04/26 12:31:56;;;;;;;1.37;1.27;;;6.20;99.90;;;;;;4943765;29;20580;-85
2022/04/26 12:34:24;;;;;;;1.60;1.50;;;6.20;99.90;;;;;;4944828;29;20789;-85
2022/04/26 12:36:59;;;;;;;1.47;1.37;;;6.30;99.90;;;;;;4944819;29;20193;-85
2022/04/26 12:39:44;;;;;;;1.67;1.40;;;6.10;99.90;;;;;;4947981;29;20161;-83
2022/04/26 12:42:12;;;;;;;1.30;1.10;;;6.30;99.90;;;;;;4958805;29;20278;-84
2022/04/26 12:44:51;;;;;;;2.30;1.70;;;6.20;99.90;;;;;;4957738;29;20193;-83
2022/04/26 12:50:31;;;;;;;1.90;1.60;;;6.50;99.90;;;;;;4952671;29;20189;-84
2022/04/26 12:53:20;;;;;;;1.90;1.40;;;6.60;99.90;;;;;;4943457;29;20177;-86
2022/04/26 12:55:45;;;;;;;1.60;1.50;;;6.80;99.90;;;;;;4943879;29;20204;-85
2022/04/26 12:58:13;;;;;;;2.20;1.77;;;7.00;99.90;;;;;;4942844;29;20178;-85
2022/04/26 13:00:45;;;;;;;1.80;1.63;;;7.40;99.90;;;;;;4943282;29;20273;-84
2022/04/26 13:03:13;;;;;;;2.30;1.80;;;7.40;99.90;;;;;;4942843;29;20180;-82
2022/04/26 13:05:45;;;;;;;2.53;1.97;;;7.50;99.90;;;;;;4943083;29;20185;-84
2022/04/26 13:08:12;;;;;;;2.63;2.10;;;7.60;99.90;;;;;;4944045;29;20287;-86
2022/04/26 13:10:41;;;;;;;2.83;2.50;;;7.60;99.90;;;;;;4943959;29;20181;-86
2022/04/26 13:13:08;;;;;;;6.90;2.43;;;7.60;99.90;;;;;;4943829;29;20174;-86
2022/04/26 13:15:35;;;;;;;6.57;2.20;;;7.80;99.90;;;;;;4943149;29;20177;-86
2022/04/26 13:18:01;;;;;;;3.17;2.40;;;8.00;99.90;;;;;;4941918;29;20182;-83
2022/04/26 13:20:28;;;;;;;3.30;2.53;;;8.40;99.90;;;;;;4942504;29;20210;-83
2022/04/26 13:22:53;;;;;;;4.30;2.50;;;8.40;99.90;;;;;;4941275;29;20652;-82
2022/04/26 13:25:19;;;;;;;2.63;2.23;;;;;;;;;;4940857;29;20204;-85
2022/04/26 13:27:48;;;;;;;2.90;2.50;;;8.50;99.90;;;;;;4941270;29;20222;-84
2022/04/26 13:30:15;;;;;;;2.80;2.20;;;8.40;99.90;;;;;;4943033;29;20176;-85
2022/04/26 13:32:42;;;;;;;3.43;1.97;;;8.30;99.90;;;;;;4941624;29;20222;-81
2022/04/26 13:35:08;;;;;;;2.40;1.77;;;8.50;99.90;;;;;;4942742;29;20175;-82
2022/04/26 13:37:34;;;;;;;2.10;1.90;;;8.70;99.90;;;;;;4943752;29;20185;-84
2022/04/26 13:40:01;;;;;;;2.73;1.90;;;8.70;99.90;;;;;;4944131;29;20176;-82
2022/04/26 13:42:27;;;;;;;2.97;2.43;;;8.80;99.90;;;;;;4943851;29;20196;-81
2022/04/26 13:44:56;;;;;;;1.97;1.80;;;8.90;99.90;;;;;;4942184;29;20194;-83
2022/04/26 13:47:22;;;;;;;2.30;2.10;;;9.40;99.90;;;;;;4943728;29;20199;-83
2022/04/26 13:49:48;;;;;;;2.30;2.10;;;9.90;99.90;;;;;;4942873;29;20216;-83
2022/04/26 13:52:15;;;;;;;2.40;2.10;;;9.80;99.90;;;;;;4945350;29;20194;-79
2022/04/26 13:54:43;;;;;;;3.27;2.50;;;9.70;99.90;;;;;;4939637;29;20188;-82
2022/04/26 13:57:10;;;;;;;3.20;2.30;;;9.70;99.90;;;;;;4938718;29;20189;-82
2022/04/26 13:59:36;;;;;;;3.67;2.30;;;9.70;99.90;;;;;;4938281;29;20185;-84
2022/04/26 14:02:03;;;;;;;2.87;2.47;;;10.10;99.90;;;;;;4939352;29;20372;-82
2022/04/26 14:04:29;;;;;;;3.47;2.37;;;10.30;99.90;;;;;;4940518;29;20177;-83
2022/04/26 14:06:55;;;;;;;6.07;4.00;;;11.10;99.90;;;;;;4938884;29;20643;-84
2022/04/26 14:09:22;;;;;;;3.50;2.53;;;11.30;99.90;;;;;;4940277;29;20173;-83
2022/04/26 14:11:48;;;;;;;3.17;2.23;;;11.60;99.90;;;;;;4939134;29;20198;-83
2022/04/26 14:22:32;;;;;;;3.50;2.40;;;12.60;99.90;;;;;;4942122;29;20200;-83
2022/04/26 14:25:02;;;;;;;3.77;2.60;;;11.60;99.90;;;;;;4939002;29;20651;-83
2022/04/26 14:27:28;;;;;;;6.03;3.67;;;11.30;99.90;;;;;;4941388;29;20560;-84
2022/04/26 14:29:54;;;;;;;3.30;2.67;;;10.90;99.90;;;;;;4942144;29;20188;-83
2022/04/26 14:32:20;;;;;;;3.57;2.30;;;;;;;;;;4941118;29;20296;-83
2022/04/26 14:34:46;;;;;;;3.83;2.57;;;11.40;99.90;;;;;;4940328;29;20248;-83
2022/04/26 14:37:12;;;;;;;4.70;2.50;;;12.80;99.90;;;;;;4942034;29;20173;-83
2022/04/26 14:39:38;;;;;;;6.27;2.70;;;13.40;99.90;;;;;;4942557;29;20169;-83
2022/04/26 14:42:05;;;;;;;6.03;2.50;;;12.50;99.90;;;;;;4942175;29;20236;-84
2022/04/26 14:44:31;;;;;;;5.63;2.13;;;12.20;99.90;;;;;;4941696;29;20213;-84
2022/04/26 14:46:57;;;;;;;4.17;2.20;;;11.70;99.90;;;;;;4952614;29;20174;-82
2022/04/26 14:49:23;;;;;;;2.27;2.03;;;11.70;99.90;;;;;;4956072;29;20257;-84
2022/04/26 14:51:49;;;;;;;2.07;1.80;;;12.50;99.90;;;;;;4956725;29;20205;-83
2022/04/26 14:54:14;;;;;;;4.43;2.80;;;13.60;99.90;;;;;;4939576;29;20212;-82
2022/04/26 14:56:40;;;;;;;2.30;2.03;;;14.30;99.90;;;;;;4938963;29;20181;-81
2022/04/26 14:59:07;;;;;;;4.20;2.30;;;15.00;99.90;;;;;;4939275;29;20665;-84
2022/04/26 15:01:33;;;;;;;2.17;1.97;;;15.40;99.90;;;;;;4937667;29;20708;-83
2022/04/26 15:04:00;;;;;;;2.40;2.07;;;15.90;99.90;;;;;;4940212;29;20269;-83
2022/04/26 15:06:26;;;;;;;2.47;1.93;;;15.00;97.00;;;;;;4938950;29;20660;-83
2022/04/26 15:11:36;;;;;;;4.13;2.70;;;13.80;99.20;;;;;;4939096;29;20200;-83
2022/04/26 15:16:47;;;;;;;4.97;3.00;;;14.70;99.90;;;;;;4937602;29;20308;-83
2022/04/26 15:19:14;;;;;;;4.43;2.67;;;15.40;97.20;;;;;;4937888;29;20158;-83
2022/04/26 15:21:44;;;;;;;6.97;2.17;;;14.60;97.00;;;;;;4941568;29;20202;-83
2022/04/26 15:24:13;;;;;;;3.00;2.33;;;13.10;98.60;;;;;;4943268;29;20178;-83
2022/04/26 15:26:40;;;;;;;8.67;5.37;;;11.70;99.90;;;;;;4945738;29;20201;-82
2022/04/26 15:29:06;;;;;;;10.83;5.27;;;11.10;99.90;;;;;;4943815;29;20229;-83
2022/04/26 15:31:34;;;;;;;3.60;2.93;;;10.50;99.90;;;;;;4944627;29;20200;-84
2022/04/26 15:34:00;;;;;;;2.60;1.90;;;9.60;99.90;;;;;;4943934;29;20178;-83
2022/04/26 15:36:26;;;;;;;2.57;1.90;;;9.20;99.90;;;;;;4944380;29;20659;-82
2022/04/26 15:38:58;;;;;;;2.07;1.13;;;8.90;99.90;;;;;;4946223;29;20181;-83
2022/04/26 15:41:24;;;;;;;1.63;1.53;;;8.70;99.90;;;;;;4948812;29;20244;-81
2022/04/26 15:43:50;;;;;;;1.90;1.67;;;8.70;99.90;;;;;;4942864;29;20208;-83
2022/04/26 15:46:16;;;;;;;3.20;2.30;;;8.70;99.90;;;;;;4942242;29;20590;-83
2022/04/26 15:48:47;;;;;;;1.73;1.10;;;8.50;99.90;;;;;;4942649;29;20240;-82
2022/04/26 15:51:17;;;;;;;2.63;1.90;;;8.50;99.90;;;;;;4945430;29;20195;-84
2022/04/26 15:53:46;;;;;;;1.50;1.40;;;8.50;99.90;;;;;;4946697;29;20536;-82
2022/04/26 15:56:12;;;;;;;2.90;1.73;;;8.40;99.90;;;;;;4942411;29;20219;-83
2022/04/26 15:58:38;;;;;;;1.50;1.40;;;8.20;99.90;;;;;;4942108;29;20684;-83
2022/04/26 16:01:03;;;;;;;1.47;1.30;;;8.10;99.90;;;;;;4942131;29;20213;-82
2022/04/26 16:03:29;;;;;;;1.70;1.60;;;8.00;99.90;;;;;;4944831;29;20176;-83
2022/04/26 16:05:54;;;;;;;1.97;1.43;;;8.10;99.90;;;;;;4943585;29;20181;-80
2022/04/26 16:08:20;;;;;;;1.50;1.20;;;8.20;99.90;;;;;;4945194;29;20201;-81
2022/04/26 16:21:44;;;;;;;1.50;1.40;;;8.70;99.90;;;;;;4945066;29;20219;-81
2022/04/26 16:24:09;;;;;;;1.53;1.43;;;8.70;99.90;;;;;;4955300;29;20710;-82
2022/04/26 16:26:36;;;;;;;3.20;1.70;;;;;;;;;;4951098;28;20188;-84
2022/04/26 16:29:04;;;;;;;1.80;1.70;;;8.50;99.90;;;;;;4956636;29;20202;-82
2022/04/26 16:31:30;;;;;;;2.03;1.80;;;8.60;99.90;;;;;;4955735;29;20249;-82
2022/04/26 16:33:57;;;;;;;2.07;1.70;;;8.60;99.90;;;;;;4954773;28;20179;-83
2022/04/26 16:36:25;;;;;;;2.67;1.77;;;8.50;99.90;;;;;;4943577;29;20182;-83
2022/04/26 16:38:51;;;;;;;2.50;2.30;;;8.40;99.90;;;;;;4945207;29;20189;-82
2022/04/26 16:41:18;;;;;;;3.00;2.70;;;8.40;99.90;;;;;;4960659;29;20237;-82
2022/04/26 16:43:44;;;;;;;2.37;1.97;;;8.40;99.90;;;;;;4959968;29;20186;-81
2022/04/26 16:46:11;;;;;;;3.30;1.70;;;8.40;99.90;;;;;;4952107;29;20705;-82
2022/04/26 16:48:37;;;;;;;3.97;3.00;;;8.40;99.90;;;;;;4944338;29;20209;-82
2022/04/26 16:51:03;;;;;;;2.20;2.00;;;8.60;99.90;;;;;;4945013;29;20209;-82
2022/04/26 16:53:29;;;;;;;2.20;2.00;;;;;;;;;;4957055;29;20185;-81
2022/04/26 16:55:56;;;;;;;2.73;2.40;;;8.50;99.90;;;;;;4950772;29;20217;-83
2022/04/26 16:58:22;;;;;;;3.63;2.70;;;8.40;99.90;;;;;;4945164;29;20205;-81
2022/04/26 17:00:48;;;;;;;3.60;2.50;;;8.40;99.90;;;;;;4942963;29;20234;-81
2022/04/26 17:03:15;;;;;;;4.10;2.57;;;8.40;99.90;;;;;;4943716;29;20273;-81
2022/04/26 17:05:45;;;;;;;4.47;2.50;;;8.30;99.90;;;;;;4943381;29;20182;-82
2022/04/26 17:08:15;;;;;;;2.90;2.37;;;8.20;99.90;;;;;;4943313;29;20346;-80
2022/04/26 17:10:42;;;;;;;3.57;2.47;;;8.20;99.90;;;;;;4943957;29;20213;-86
2022/04/26 17:13:08;;;;;;;6.37;3.43;;;8.10;99.90;;;;;;4944174;29;20282;-81
2022/04/26 17:15:34;;;;;;;3.83;3.20;;;8.10;99.90;;;;;;4942626;29;20214;-82
2022/04/26 17:18:01;;;;;;;3.50;3.07;;;8.00;99.90;;;;;;4942891;29;20195;-81